sensor_id;sensor_type;location;lat;lon;timestamp;temperature;humidity
46898;DHT22;32646;50.958;6.258;2023-10-13T00:00:27;18.10;99.90
46898;DHT22;32646;50.958;6.258;2023-10-13T00:02:53;18.00;99.90
46898;DHT22;32646;50.958;6.258;2023-10-13T00:05:20;18.00;99.90
46898;DHT22;32646;50.958;6.258;2023-10-13T00:07:47;18.10;99.90
46898;DHT22;32646;50.958;6.258;2023-10-13T00:10:13;18.10;99.90
46898;DHT22;32646;50.958;6.258;2023-10-13T00:12:40;18.10;99.90
46898;DHT22;32646;50.958;6.258;2023-10-13T00:15:06;18.20;99.90
46898;DHT22;32646;50.958;6.258;2023-10-13T00:17:33;18.20;99.90
46898;DHT22;32646;50.958;6.258;2023-10-13T00:20:00;18.10;99.90
46898;DHT22;32646;50.958;6.258;2023-10-13T00:22:26;18.10;99.90
46898;DHT22;32646;50.958;6.258;2023-10-13T00:24:53;18.10;99.90
46898;DHT22;32646;50.958;6.258;2023-10-13T00:27:20;18.00;99.90
46898;DHT22;32646;50.958;6.258;2023-10-13T00:29:47;18.10;99.90
46898;DHT22;32646;50.958;6.258;2023-10-13T00:32:14;18.10;99.90
46898;DHT22;32646;50.958;6.258;2023-10-13T00:34:40;18.10;99.90
46898;DHT22;32646;50.958;6.258;2023-10-13T00:37:07;18.10;99.90
46898;DHT22;32646;50.958;6.258;2023-10-13T00:39:34;18.20;99.90
46898;DHT22;32646;50.958;6.258;2023-10-13T00:42:00;18.10;99.90
46898;DHT22;32646;50.958;6.258;2023-10-13T00:44:27;18.20;99.90
46898;DHT22;32646;50.958;6.258;2023-10-13T00:46:54;18.10;99.90
46898;DHT22;32646;50.958;6.258;2023-10-13T00:49:22;18.20;99.90
46898;DHT22;32646;50.958;6.258;2023-10-13T00:51:50;18.10;99.90
46898;DHT22;32646;50.958;6.258;2023-10-13T00:54:17;18.10;99.90
46898;DHT22;32646;50.958;6.258;2023-10-13T00:56:46;18.10;99.90
46898;DHT22;32646;50.958;6.258;2023-10-13T00:59:16;18.20;99.90
46898;DHT22;32646;50.958;6.258;2023-10-13T01:01:43;18.10;99.90
46898;DHT22;32646;50.958;6.258;2023-10-13T01:04:12;18.10;99.90
46898;DHT22;32646;50.958;6.258;2023-10-13T01:06:39;18.10;99.90
46898;DHT22;32646;50.958;6.258;2023-10-13T01:09:10;18.00;99.90
46898;DHT22;32646;50.958;6.258;2023-10-13T01:11:41;18.00;99.90
46898;DHT22;32646;50.958;6.258;2023-10-13T01:14:09;18.00;99.90
46898;DHT22;32646;50.958;6.258;2023-10-13T01:16:35;17.90;99.90
46898;DHT22;32646;50.958;6.258;2023-10-13T01:19:02;17.90;99.90
46898;DHT22;32646;50.958;6.258;2023-10-13T01:21:29;17.90;99.90
46898;DHT22;32646;50.958;6.258;2023-10-13T01:23:56;17.80;99.90
46898;DHT22;32646;50.958;6.258;2023-10-13T01:26:22;17.80;99.90
46898;DHT22;32646;50.958;6.258;2023-10-13T01:28:49;17.80;99.90
46898;DHT22;32646;50.958;6.258;2023-10-13T01:31:16;17.80;99.90
46898;DHT22;32646;50.958;6.258;2023-10-13T01:33:43;17.80;99.90
46898;DHT22;32646;50.958;6.258;2023-10-13T01:36:10;17.80;99.90
46898;DHT22;32646;50.958;6.258;2023-10-13T01:38:37;17.80;99.90
46898;DHT22;32646;50.958;6.258;2023-10-13T01:41:06;17.70;99.90
46898;DHT22;32646;50.958;6.258;2023-10-13T01:43:33;17.60;99.90
46898;DHT22;32646;50.958;6.258;2023-10-13T01:45:59;17.60;99.90
46898;DHT22;32646;50.958;6.258;2023-10-13T01:48:26;17.50;99.90
46898;DHT22;32646;50.958;6.258;2023-10-13T01:50:56;17.50;99.90
46898;DHT22;32646;50.958;6.258;2023-10-13T01:53:23;17.50;99.90
46898;DHT22;32646;50.958;6.258;2023-10-13T01:55:49;17.40;99.90
46898;DHT22;32646;50.958;6.258;2023-10-13T01:58:16;17.40;99.90
46898;DHT22;32646;50.958;6.258;2023-10-13T02:00:44;17.40;99.90
46898;DHT22;32646;50.958;6.258;2023-10-13T02:03:12;17.40;99.90
46898;DHT22;32646;50.958;6.258;2023-10-13T02:05:38;17.40;99.90
46898;DHT22;32646;50.958;6.258;2023-10-13T02:08:05;17.40;99.90
46898;DHT22;32646;50.958;6.258;2023-10-13T02:10:32;17.40;99.90
46898;DHT22;32646;50.958;6.258;2023-10-13T02:12:58;17.30;99.90
46898;DHT22;32646;50.958;6.258;2023-10-13T02:15:25;17.30;99.90
46898;DHT22;32646;50.958;6.258;2023-10-13T02:17:52;17.40;99.90
46898;DHT22;32646;50.958;6.258;2023-10-13T02:20:19;17.40;99.90
46898;DHT22;32646;50.958;6.258;2023-10-13T02:22:46;17.40;99.90
46898;DHT22;32646;50.958;6.258;2023-10-13T02:25:12;17.40;99.90
46898;DHT22;32646;50.958;6.258;2023-10-13T02:27:39;17.40;99.90
46898;DHT22;32646;50.958;6.258;2023-10-13T02:30:07;17.40;99.90
46898;DHT22;32646;50.958;6.258;2023-10-13T02:32:34;17.40;99.90
46898;DHT22;32646;50.958;6.258;2023-10-13T02:35:00;17.40;99.90
46898;DHT22;32646;50.958;6.258;2023-10-13T02:37:27;17.40;99.90
46898;DHT22;32646;50.958;6.258;2023-10-13T02:39:54;17.50;99.90
46898;DHT22;32646;50.958;6.258;2023-10-13T02:42:20;17.40;99.90
46898;DHT22;32646;50.958;6.258;2023-10-13T02:44:47;17.40;99.90
46898;DHT22;32646;50.958;6.258;2023-10-13T02:47:13;17.50;99.90
46898;DHT22;32646;50.958;6.258;2023-10-13T02:49:41;17.50;99.90
46898;DHT22;32646;50.958;6.258;2023-10-13T02:52:07;17.60;99.90
46898;DHT22;32646;50.958;6.258;2023-10-13T02:54:34;17.50;99.90
46898;DHT22;32646;50.958;6.258;2023-10-13T02:57:01;17.70;99.90
46898;DHT22;32646;50.958;6.258;2023-10-13T02:59:28;17.70;99.90
46898;DHT22;32646;50.958;6.258;2023-10-13T03:01:55;17.60;99.90
46898;DHT22;32646;50.958;6.258;2023-10-13T03:04:22;17.60;99.90
46898;DHT22;32646;50.958;6.258;2023-10-13T03:06:48;17.60;99.90
46898;DHT22;32646;50.958;6.258;2023-10-13T03:09:15;17.60;99.90
46898;DHT22;32646;50.958;6.258;2023-10-13T03:11:42;17.70;99.90
46898;DHT22;32646;50.958;6.258;2023-10-13T03:14:09;17.70;99.90
46898;DHT22;32646;50.958;6.258;2023-10-13T03:16:36;17.70;99.90
46898;DHT22;32646;50.958;6.258;2023-10-13T03:19:03;17.70;99.90
46898;DHT22;32646;50.958;6.258;2023-10-13T03:21:29;17.70;99.90
46898;DHT22;32646;50.958;6.258;2023-10-13T03:23:58;17.70;99.90
46898;DHT22;32646;50.958;6.258;2023-10-13T03:26:25;17.70;99.90
46898;DHT22;32646;50.958;6.258;2023-10-13T03:28:51;17.70;99.90
46898;DHT22;32646;50.958;6.258;2023-10-13T03:31:19;17.60;99.90
46898;DHT22;32646;50.958;6.258;2023-10-13T03:33:46;17.70;99.90
46898;DHT22;32646;50.958;6.258;2023-10-13T03:36:13;17.70;99.90
46898;DHT22;32646;50.958;6.258;2023-10-13T03:38:40;17.60;99.90
46898;DHT22;32646;50.958;6.258;2023-10-13T03:41:06;17.70;99.90
46898;DHT22;32646;50.958;6.258;2023-10-13T03:43:34;17.70;99.90
46898;DHT22;32646;50.958;6.258;2023-10-13T03:46:00;17.70;99.90
46898;DHT22;32646;50.958;6.258;2023-10-13T03:48:27;17.80;99.90
46898;DHT22;32646;50.958;6.258;2023-10-13T03:50:59;17.80;99.90
46898;DHT22;32646;50.958;6.258;2023-10-13T03:53:26;17.80;99.90
46898;DHT22;32646;50.958;6.258;2023-10-13T03:55:52;17.80;99.90
46898;DHT22;32646;50.958;6.258;2023-10-13T03:58:19;17.70;99.90
46898;DHT22;32646;50.958;6.258;2023-10-13T04:00:46;17.80;99.90
46898;DHT22;32646;50.958;6.258;2023-10-13T04:03:12;17.80;99.90
46898;DHT22;32646;50.958;6.258;2023-10-13T04:05:39;17.80;99.90
46898;DHT22;32646;50.958;6.258;2023-10-13T04:08:06;17.70;99.90
46898;DHT22;32646;50.958;6.258;2023-10-13T04:10:33;17.70;99.90
46898;DHT22;32646;50.958;6.258;2023-10-13T04:13:00;17.80;99.90
46898;DHT22;32646;50.958;6.258;2023-10-13T04:15:29;17.80;99.90
46898;DHT22;32646;50.958;6.258;2023-10-13T04:17:58;17.80;99.90
46898;DHT22;32646;50.958;6.258;2023-10-13T04:20:24;17.80;99.90
46898;DHT22;32646;50.958;6.258;2023-10-13T04:22:51;17.80;99.90
46898;DHT22;32646;50.958;6.258;2023-10-13T04:25:25;17.80;99.90
46898;DHT22;32646;50.958;6.258;2023-10-13T04:27:52;17.80;99.90
46898;DHT22;32646;50.958;6.258;2023-10-13T04:30:19;17.80;99.90
46898;DHT22;32646;50.958;6.258;2023-10-13T04:32:45;17.80;99.90
46898;DHT22;32646;50.958;6.258;2023-10-13T04:35:12;17.70;99.90
46898;DHT22;32646;50.958;6.258;2023-10-13T04:37:39;17.70;99.90
46898;DHT22;32646;50.958;6.258;2023-10-13T04:40:06;17.70;99.90
46898;DHT22;32646;50.958;6.258;2023-10-13T04:42:33;17.80;99.90
46898;DHT22;32646;50.958;6.258;2023-10-13T04:45:00;17.70;99.90
46898;DHT22;32646;50.958;6.258;2023-10-13T04:47:26;17.80;99.90
46898;DHT22;32646;50.958;6.258;2023-10-13T04:49:53;17.80;99.90
46898;DHT22;32646;50.958;6.258;2023-10-13T04:52:20;17.80;99.90
46898;DHT22;32646;50.958;6.258;2023-10-13T04:54:47;17.80;99.90
46898;DHT22;32646;50.958;6.258;2023-10-13T04:59:40;17.80;99.90
46898;DHT22;32646;50.958;6.258;2023-10-13T05:02:07;17.80;99.90
46898;DHT22;32646;50.958;6.258;2023-10-13T05:04:34;17.80;99.90
46898;DHT22;32646;50.958;6.258;2023-10-13T05:07:00;17.70;99.90
46898;DHT22;32646;50.958;6.258;2023-10-13T05:09:27;17.80;99.90
46898;DHT22;32646;50.958;6.258;2023-10-13T05:11:54;17.80;99.90
46898;DHT22;32646;50.958;6.258;2023-10-13T05:14:20;17.80;99.90
46898;DHT22;32646;50.958;6.258;2023-10-13T05:16:47;17.90;99.90
46898;DHT22;32646;50.958;6.258;2023-10-13T05:19:14;17.90;99.90
46898;DHT22;32646;50.958;6.258;2023-10-13T05:21:41;17.90;99.90
46898;DHT22;32646;50.958;6.258;2023-10-13T05:24:08;18.00;99.90
46898;DHT22;32646;50.958;6.258;2023-10-13T05:26:34;18.00;99.90
46898;DHT22;32646;50.958;6.258;2023-10-13T05:29:01;18.00;99.90
46898;DHT22;32646;50.958;6.258;2023-10-13T05:31:40;18.10;99.90
46898;DHT22;32646;50.958;6.258;2023-10-13T05:34:07;18.10;99.90
46898;DHT22;32646;50.958;6.258;2023-10-13T05:36:34;18.10;99.90
46898;DHT22;32646;50.958;6.258;2023-10-13T05:39:00;18.10;99.90
46898;DHT22;32646;50.958;6.258;2023-10-13T05:41:29;18.00;99.90
46898;DHT22;32646;50.958;6.258;2023-10-13T05:43:56;18.10;99.90
46898;DHT22;32646;50.958;6.258;2023-10-13T05:46:22;18.10;99.90
46898;DHT22;32646;50.958;6.258;2023-10-13T05:48:49;18.00;99.90
46898;DHT22;32646;50.958;6.258;2023-10-13T05:51:16;18.00;99.90
46898;DHT22;32646;50.958;6.258;2023-10-13T05:53:42;18.10;99.90
46898;DHT22;32646;50.958;6.258;2023-10-13T05:56:09;18.00;99.90
46898;DHT22;32646;50.958;6.258;2023-10-13T05:58:36;18.10;99.90
46898;DHT22;32646;50.958;6.258;2023-10-13T06:01:02;18.00;99.90
46898;DHT22;32646;50.958;6.258;2023-10-13T06:03:29;18.00;99.90
46898;DHT22;32646;50.958;6.258;2023-10-13T06:05:56;17.90;99.90
46898;DHT22;32646;50.958;6.258;2023-10-13T06:08:22;18.00;99.90
46898;DHT22;32646;50.958;6.258;2023-10-13T06:10:49;17.90;99.90
46898;DHT22;32646;50.958;6.258;2023-10-13T06:13:16;18.00;99.90
46898;DHT22;32646;50.958;6.258;2023-10-13T06:15:42;18.00;99.90
46898;DHT22;32646;50.958;6.258;2023-10-13T06:18:09;17.90;99.90
46898;DHT22;32646;50.958;6.258;2023-10-13T06:20:40;17.90;99.90
46898;DHT22;32646;50.958;6.258;2023-10-13T06:23:06;17.90;99.90
46898;DHT22;32646;50.958;6.258;2023-10-13T06:25:33;17.90;99.90
46898;DHT22;32646;50.958;6.258;2023-10-13T06:28:00;18.00;99.90
46898;DHT22;32646;50.958;6.258;2023-10-13T06:30:27;18.00;99.90
46898;DHT22;32646;50.958;6.258;2023-10-13T06:32:53;18.10;99.90
46898;DHT22;32646;50.958;6.258;2023-10-13T06:35:20;18.30;99.90
46898;DHT22;32646;50.958;6.258;2023-10-13T06:37:46;18.20;99.90
46898;DHT22;32646;50.958;6.258;2023-10-13T06:40:13;18.20;99.90
46898;DHT22;32646;50.958;6.258;2023-10-13T06:42:40;18.30;99.90
46898;DHT22;32646;50.958;6.258;2023-10-13T06:45:07;18.40;99.90
46898;DHT22;32646;50.958;6.258;2023-10-13T06:47:37;18.40;99.90
46898;DHT22;32646;50.958;6.258;2023-10-13T06:50:04;18.40;99.90
46898;DHT22;32646;50.958;6.258;2023-10-13T06:52:30;18.40;99.90
46898;DHT22;32646;50.958;6.258;2023-10-13T06:54:57;18.40;99.90
46898;DHT22;32646;50.958;6.258;2023-10-13T06:57:24;18.40;99.90
46898;DHT22;32646;50.958;6.258;2023-10-13T06:59:50;18.30;99.90
46898;DHT22;32646;50.958;6.258;2023-10-13T07:02:17;18.30;99.90
46898;DHT22;32646;50.958;6.258;2023-10-13T07:04:53;18.30;99.90
46898;DHT22;32646;50.958;6.258;2023-10-13T07:07:20;18.20;99.90
46898;DHT22;32646;50.958;6.258;2023-10-13T07:09:47;18.30;99.90
46898;DHT22;32646;50.958;6.258;2023-10-13T07:12:14;18.30;99.90
46898;DHT22;32646;50.958;6.258;2023-10-13T07:14:40;18.20;99.90
46898;DHT22;32646;50.958;6.258;2023-10-13T07:17:07;18.20;99.90
46898;DHT22;32646;50.958;6.258;2023-10-13T07:19:34;18.20;99.90
46898;DHT22;32646;50.958;6.258;2023-10-13T07:22:02;18.30;99.90
46898;DHT22;32646;50.958;6.258;2023-10-13T07:24:29;18.20;99.90
46898;DHT22;32646;50.958;6.258;2023-10-13T07:26:55;18.30;99.90
46898;DHT22;32646;50.958;6.258;2023-10-13T07:29:22;18.20;99.90
46898;DHT22;32646;50.958;6.258;2023-10-13T07:31:49;18.40;99.90
46898;DHT22;32646;50.958;6.258;2023-10-13T07:34:15;18.50;99.90
46898;DHT22;32646;50.958;6.258;2023-10-13T07:36:42;18.50;99.90
46898;DHT22;32646;50.958;6.258;2023-10-13T07:39:09;18.80;99.90
46898;DHT22;32646;50.958;6.258;2023-10-13T07:41:49;18.80;99.90
46898;DHT22;32646;50.958;6.258;2023-10-13T07:44:16;18.80;99.90
46898;DHT22;32646;50.958;6.258;2023-10-13T07:46:42;18.70;99.90
46898;DHT22;32646;50.958;6.258;2023-10-13T07:49:09;18.60;99.90
46898;DHT22;32646;50.958;6.258;2023-10-13T07:51:36;18.70;99.90
46898;DHT22;32646;50.958;6.258;2023-10-13T07:54:02;18.60;99.90
46898;DHT22;32646;50.958;6.258;2023-10-13T07:56:29;18.50;99.90
46898;DHT22;32646;50.958;6.258;2023-10-13T07:58:56;18.70;99.90
46898;DHT22;32646;50.958;6.258;2023-10-13T08:01:22;18.80;99.90
46898;DHT22;32646;50.958;6.258;2023-10-13T08:03:49;19.90;99.90
46898;DHT22;32646;50.958;6.258;2023-10-13T08:06:17;20.30;99.90
46898;DHT22;32646;50.958;6.258;2023-10-13T08:08:47;20.30;99.90
46898;DHT22;32646;50.958;6.258;2023-10-13T08:11:15;20.40;99.90
46898;DHT22;32646;50.958;6.258;2023-10-13T08:13:42;20.30;99.90
46898;DHT22;32646;50.958;6.258;2023-10-13T08:16:30;20.30;99.90
46898;DHT22;32646;50.958;6.258;2023-10-13T08:18:56;20.60;99.90
46898;DHT22;32646;50.958;6.258;2023-10-13T08:21:23;20.80;99.90
46898;DHT22;32646;50.958;6.258;2023-10-13T08:23:50;21.30;98.00
46898;DHT22;32646;50.958;6.258;2023-10-13T08:26:18;21.60;96.90
46898;DHT22;32646;50.958;6.258;2023-10-13T08:28:44;21.70;93.80
46898;DHT22;32646;50.958;6.258;2023-10-13T08:31:22;21.50;95.70
46898;DHT22;32646;50.958;6.258;2023-10-13T08:33:55;21.30;94.20
46898;DHT22;32646;50.958;6.258;2023-10-13T08:36:21;21.60;92.60
46898;DHT22;32646;50.958;6.258;2023-10-13T08:38:48;21.90;92.50
46898;DHT22;32646;50.958;6.258;2023-10-13T08:41:17;22.30;89.30
46898;DHT22;32646;50.958;6.258;2023-10-13T08:43:44;22.50;85.00
46898;DHT22;32646;50.958;6.258;2023-10-13T08:46:11;22.80;84.00
46898;DHT22;32646;50.958;6.258;2023-10-13T08:48:39;22.40;85.90
46898;DHT22;32646;50.958;6.258;2023-10-13T08:51:06;22.40;84.30
46898;DHT22;32646;50.958;6.258;2023-10-13T08:53:32;22.90;84.30
46898;DHT22;32646;50.958;6.258;2023-10-13T08:56:07;23.10;78.20
46898;DHT22;32646;50.958;6.258;2023-10-13T08:58:36;23.50;77.70
46898;DHT22;32646;50.958;6.258;2023-10-13T09:01:03;23.50;74.70
46898;DHT22;32646;50.958;6.258;2023-10-13T09:03:30;23.60;76.40
46898;DHT22;32646;50.958;6.258;2023-10-13T09:05:59;23.60;73.80
46898;DHT22;32646;50.958;6.258;2023-10-13T09:08:26;23.80;73.90
46898;DHT22;32646;50.958;6.258;2023-10-13T09:10:58;23.90;75.80
46898;DHT22;32646;50.958;6.258;2023-10-13T09:13:34;23.90;76.20
46898;DHT22;32646;50.958;6.258;2023-10-13T09:16:09;23.60;74.20
46898;DHT22;32646;50.958;6.258;2023-10-13T09:18:36;23.60;75.00
46898;DHT22;32646;50.958;6.258;2023-10-13T09:21:02;23.70;74.60
46898;DHT22;32646;50.958;6.258;2023-10-13T09:23:29;23.50;76.80
46898;DHT22;32646;50.958;6.258;2023-10-13T09:26:05;23.50;76.00
46898;DHT22;32646;50.958;6.258;2023-10-13T09:28:32;23.50;76.30
46898;DHT22;32646;50.958;6.258;2023-10-13T09:30:58;23.50;75.70
46898;DHT22;32646;50.958;6.258;2023-10-13T09:33:27;23.60;73.60
46898;DHT22;32646;50.958;6.258;2023-10-13T09:35:54;23.70;77.00
46898;DHT22;32646;50.958;6.258;2023-10-13T09:38:21;23.50;76.00
46898;DHT22;32646;50.958;6.258;2023-10-13T09:40:47;23.20;77.80
46898;DHT22;32646;50.958;6.258;2023-10-13T09:43:14;22.90;80.20
46898;DHT22;32646;50.958;6.258;2023-10-13T09:45:45;22.60;81.40
46898;DHT22;32646;50.958;6.258;2023-10-13T09:48:13;22.60;81.80
46898;DHT22;32646;50.958;6.258;2023-10-13T09:50:45;22.80;80.90
46898;DHT22;32646;50.958;6.258;2023-10-13T09:53:13;22.70;80.80
46898;DHT22;32646;50.958;6.258;2023-10-13T09:55:55;22.70;81.60
46898;DHT22;32646;50.958;6.258;2023-10-13T09:58:24;22.70;80.50
46898;DHT22;32646;50.958;6.258;2023-10-13T10:00:56;23.20;80.50
46898;DHT22;32646;50.958;6.258;2023-10-13T10:03:24;23.80;77.00
46898;DHT22;32646;50.958;6.258;2023-10-13T10:06:01;24.50;73.10
46898;DHT22;32646;50.958;6.258;2023-10-13T10:08:28;24.80;69.70
46898;DHT22;32646;50.958;6.258;2023-10-13T10:17:05;24.40;72.40
46898;DHT22;32646;50.958;6.258;2023-10-13T10:19:32;24.80;72.20
46898;DHT22;32646;50.958;6.258;2023-10-13T10:22:05;24.80;69.60
46898;DHT22;32646;50.958;6.258;2023-10-13T10:24:32;24.90;68.40
46898;DHT22;32646;50.958;6.258;2023-10-13T10:26:58;25.30;70.50
46898;DHT22;32646;50.958;6.258;2023-10-13T10:29:25;25.20;68.90
46898;DHT22;32646;50.958;6.258;2023-10-13T10:31:52;24.90;69.00
46898;DHT22;32646;50.958;6.258;2023-10-13T10:34:18;24.50;69.90
46898;DHT22;32646;50.958;6.258;2023-10-13T10:36:54;24.90;71.50
46898;DHT22;32646;50.958;6.258;2023-10-13T10:39:21;25.10;69.00
46898;DHT22;32646;50.958;6.258;2023-10-13T10:42:14;24.90;68.00
46898;DHT22;32646;50.958;6.258;2023-10-13T10:44:41;24.80;68.20
46898;DHT22;32646;50.958;6.258;2023-10-13T10:47:15;24.40;68.10
46898;DHT22;32646;50.958;6.258;2023-10-13T10:49:42;24.30;71.80
46898;DHT22;32646;50.958;6.258;2023-10-13T10:52:10;24.50;68.70
46898;DHT22;32646;50.958;6.258;2023-10-13T10:54:36;24.70;69.50
46898;DHT22;32646;50.958;6.258;2023-10-13T10:57:03;24.90;68.60
46898;DHT22;32646;50.958;6.258;2023-10-13T10:59:34;25.10;67.80
46898;DHT22;32646;50.958;6.258;2023-10-13T11:02:01;25.50;65.80
46898;DHT22;32646;50.958;6.258;2023-10-13T11:04:27;25.30;67.30
46898;DHT22;32646;50.958;6.258;2023-10-13T11:06:55;24.70;67.90
46898;DHT22;32646;50.958;6.258;2023-10-13T11:09:27;24.50;69.20
46898;DHT22;32646;50.958;6.258;2023-10-13T11:11:54;24.40;68.50
46898;DHT22;32646;50.958;6.258;2023-10-13T11:14:22;24.30;69.80
46898;DHT22;32646;50.958;6.258;2023-10-13T11:16:51;24.30;68.90
46898;DHT22;32646;50.958;6.258;2023-10-13T11:19:18;24.20;67.90
46898;DHT22;32646;50.958;6.258;2023-10-13T11:21:44;24.10;70.20
46898;DHT22;32646;50.958;6.258;2023-10-13T11:24:11;24.00;70.10
46898;DHT22;32646;50.958;6.258;2023-10-13T11:26:38;24.00;69.20
46898;DHT22;32646;50.958;6.258;2023-10-13T11:29:04;23.90;70.40
46898;DHT22;32646;50.958;6.258;2023-10-13T11:31:31;23.80;71.00
46898;DHT22;32646;50.958;6.258;2023-10-13T11:33:58;23.70;70.40
46898;DHT22;32646;50.958;6.258;2023-10-13T11:36:24;23.70;71.90
46898;DHT22;32646;50.958;6.258;2023-10-13T11:38:51;23.60;70.30
46898;DHT22;32646;50.958;6.258;2023-10-13T11:41:17;23.70;68.50
46898;DHT22;32646;50.958;6.258;2023-10-13T11:46:13;23.60;67.30
46898;DHT22;32646;50.958;6.258;2023-10-13T11:48:45;23.60;67.80
46898;DHT22;32646;50.958;6.258;2023-10-13T11:51:14;23.60;68.00
46898;DHT22;32646;50.958;6.258;2023-10-13T11:53:41;23.60;67.60
46898;DHT22;32646;50.958;6.258;2023-10-13T11:56:09;23.70;66.40
46898;DHT22;32646;50.958;6.258;2023-10-13T11:58:39;23.80;66.60
46898;DHT22;32646;50.958;6.258;2023-10-13T12:01:07;23.60;66.50
46898;DHT22;32646;50.958;6.258;2023-10-13T12:03:33;23.70;65.60
46898;DHT22;32646;50.958;6.258;2023-10-13T12:06:00;23.60;67.20
46898;DHT22;32646;50.958;6.258;2023-10-13T12:08:27;23.70;64.50
46898;DHT22;32646;50.958;6.258;2023-10-13T12:10:53;23.60;67.30
46898;DHT22;32646;50.958;6.258;2023-10-13T12:13:20;23.60;67.90
46898;DHT22;32646;50.958;6.258;2023-10-13T12:15:46;23.60;66.60
46898;DHT22;32646;50.958;6.258;2023-10-13T12:18:13;23.60;67.50
46898;DHT22;32646;50.958;6.258;2023-10-13T12:20:40;23.60;66.00
46898;DHT22;32646;50.958;6.258;2023-10-13T12:23:06;23.70;66.40
46898;DHT22;32646;50.958;6.258;2023-10-13T12:25:33;23.60;66.80
46898;DHT22;32646;50.958;6.258;2023-10-13T12:28:00;23.60;65.20
46898;DHT22;32646;50.958;6.258;2023-10-13T12:30:27;23.60;65.00
46898;DHT22;32646;50.958;6.258;2023-10-13T12:32:53;23.60;65.30
46898;DHT22;32646;50.958;6.258;2023-10-13T12:35:20;23.60;66.50
46898;DHT22;32646;50.958;6.258;2023-10-13T12:37:47;23.50;66.00
46898;DHT22;32646;50.958;6.258;2023-10-13T12:40:18;23.60;64.20
46898;DHT22;32646;50.958;6.258;2023-10-13T12:42:45;23.60;63.80
46898;DHT22;32646;50.958;6.258;2023-10-13T12:45:12;23.60;64.50
46898;DHT22;32646;50.958;6.258;2023-10-13T12:47:38;23.80;64.40
46898;DHT22;32646;50.958;6.258;2023-10-13T12:50:05;23.70;65.30
46898;DHT22;32646;50.958;6.258;2023-10-13T12:52:32;23.60;65.00
46898;DHT22;32646;50.958;6.258;2023-10-13T12:54:59;23.70;64.10
46898;DHT22;32646;50.958;6.258;2023-10-13T12:57:27;23.70;64.50
46898;DHT22;32646;50.958;6.258;2023-10-13T12:59:54;23.90;62.50
46898;DHT22;32646;50.958;6.258;2023-10-13T13:02:25;24.00;63.80
46898;DHT22;32646;50.958;6.258;2023-10-13T13:04:53;23.80;63.70
46898;DHT22;32646;50.958;6.258;2023-10-13T13:07:20;23.70;63.80
46898;DHT22;32646;50.958;6.258;2023-10-13T13:09:47;23.60;65.30
46898;DHT22;32646;50.958;6.258;2023-10-13T13:12:13;23.50;65.30
46898;DHT22;32646;50.958;6.258;2023-10-13T13:14:40;23.40;66.60
46898;DHT22;32646;50.958;6.258;2023-10-13T13:17:06;23.30;65.50
46898;DHT22;32646;50.958;6.258;2023-10-13T13:19:35;23.40;64.80
46898;DHT22;32646;50.958;6.258;2023-10-13T13:22:02;23.30;65.90
46898;DHT22;32646;50.958;6.258;2023-10-13T13:24:29;23.20;66.90
46898;DHT22;32646;50.958;6.258;2023-10-13T13:26:56;23.30;66.30
46898;DHT22;32646;50.958;6.258;2023-10-13T13:29:23;23.20;65.60
46898;DHT22;32646;50.958;6.258;2023-10-13T13:31:50;23.30;66.40
46898;DHT22;32646;50.958;6.258;2023-10-13T13:34:16;23.20;66.90
46898;DHT22;32646;50.958;6.258;2023-10-13T13:36:43;23.10;67.60
46898;DHT22;32646;50.958;6.258;2023-10-13T13:39:12;23.10;66.40
46898;DHT22;32646;50.958;6.258;2023-10-13T13:41:39;23.20;66.10
46898;DHT22;32646;50.958;6.258;2023-10-13T13:44:06;23.20;65.70
46898;DHT22;32646;50.958;6.258;2023-10-13T13:46:32;23.10;66.90
46898;DHT22;32646;50.958;6.258;2023-10-13T13:49:00;23.00;67.20
46898;DHT22;32646;50.958;6.258;2023-10-13T13:51:27;22.90;66.40
46898;DHT22;32646;50.958;6.258;2023-10-13T13:53:55;22.90;68.00
46898;DHT22;32646;50.958;6.258;2023-10-13T13:56:22;22.90;64.90
46898;DHT22;32646;50.958;6.258;2023-10-13T13:58:49;23.00;65.30
46898;DHT22;32646;50.958;6.258;2023-10-13T14:01:16;22.90;66.60
46898;DHT22;32646;50.958;6.258;2023-10-13T14:03:44;22.80;67.10
46898;DHT22;32646;50.958;6.258;2023-10-13T14:06:13;22.90;67.10
46898;DHT22;32646;50.958;6.258;2023-10-13T14:08:43;22.80;65.50
46898;DHT22;32646;50.958;6.258;2023-10-13T14:11:09;22.90;65.20
46898;DHT22;32646;50.958;6.258;2023-10-13T14:13:36;22.90;65.00
46898;DHT22;32646;50.958;6.258;2023-10-13T14:16:02;22.90;65.40
46898;DHT22;32646;50.958;6.258;2023-10-13T14:18:29;22.80;65.80
46898;DHT22;32646;50.958;6.258;2023-10-13T14:20:56;22.70;66.30
46898;DHT22;32646;50.958;6.258;2023-10-13T14:23:22;22.70;66.40
46898;DHT22;32646;50.958;6.258;2023-10-13T14:25:49;22.70;65.40
46898;DHT22;32646;50.958;6.258;2023-10-13T14:28:16;22.70;65.50
46898;DHT22;32646;50.958;6.258;2023-10-13T14:30:42;22.70;66.40
46898;DHT22;32646;50.958;6.258;2023-10-13T14:33:09;22.70;65.50
46898;DHT22;32646;50.958;6.258;2023-10-13T14:35:36;22.60;66.00
46898;DHT22;32646;50.958;6.258;2023-10-13T14:38:03;22.60;66.20
46898;DHT22;32646;50.958;6.258;2023-10-13T14:40:30;22.60;65.30
46898;DHT22;32646;50.958;6.258;2023-10-13T14:42:56;22.60;65.50
46898;DHT22;32646;50.958;6.258;2023-10-13T14:45:23;22.50;65.40
46898;DHT22;32646;50.958;6.258;2023-10-13T14:47:49;22.50;66.70
46898;DHT22;32646;50.958;6.258;2023-10-13T14:50:16;22.50;64.90
46898;DHT22;32646;50.958;6.258;2023-10-13T14:52:43;22.50;65.60
46898;DHT22;32646;50.958;6.258;2023-10-13T14:55:10;22.40;65.60
46898;DHT22;32646;50.958;6.258;2023-10-13T14:57:36;22.40;65.70
46898;DHT22;32646;50.958;6.258;2023-10-13T15:00:03;22.40;65.60
46898;DHT22;32646;50.958;6.258;2023-10-13T15:02:30;22.50;64.60
46898;DHT22;32646;50.958;6.258;2023-10-13T15:04:57;22.50;64.70
46898;DHT22;32646;50.958;6.258;2023-10-13T15:07:23;22.40;65.70
46898;DHT22;32646;50.958;6.258;2023-10-13T15:09:50;22.50;64.30
46898;DHT22;32646;50.958;6.258;2023-10-13T15:12:16;22.50;64.30
46898;DHT22;32646;50.958;6.258;2023-10-13T15:14:47;22.40;65.60
46898;DHT22;32646;50.958;6.258;2023-10-13T15:17:14;22.30;64.90
46898;DHT22;32646;50.958;6.258;2023-10-13T15:19:41;22.50;64.30
46898;DHT22;32646;50.958;6.258;2023-10-13T15:22:07;22.50;63.40
46898;DHT22;32646;50.958;6.258;2023-10-13T15:24:34;22.50;64.20
46898;DHT22;32646;50.958;6.258;2023-10-13T15:27:01;22.40;64.70
46898;DHT22;32646;50.958;6.258;2023-10-13T15:29:28;22.30;66.00
46898;DHT22;32646;50.958;6.258;2023-10-13T15:31:54;22.20;65.20
46898;DHT22;32646;50.958;6.258;2023-10-13T15:34:21;22.30;64.80
46898;DHT22;32646;50.958;6.258;2023-10-13T15:36:48;22.20;65.00
46898;DHT22;32646;50.958;6.258;2023-10-13T15:39:14;22.20;65.40
46898;DHT22;32646;50.958;6.258;2023-10-13T15:41:42;22.20;66.20